KBNL/BNL METAR and TAF weather

Enter ICAO airport designator
Station Type Date Time Source
KBNL METAR 2022/01/26 13:55 UTC NOAA

KBNL 261355Z AUTO 04010KT 10SM CLR 05/03 A3019 RMK AO2


Station Type Date Time Source
KBNL Decoded METAR 2022/01/26 13:55 UTC NOAA

Station name not available
Jan 26, 2022 - 08:55 AM EST / 2022.01.26 1355 UTC
Wind: from the NE (040 degrees) at 12 MPH (10 KT):0
Visibility: 10 mile(s):0
Sky conditions: clear
Temperature: 41 F (5 C)
Dew Point: 37 F (3 C)
Relative Humidity: 86%
Pressure (altimeter): 30.19 in. Hg (1022 hPa)
ob: KBNL 261355Z AUTO 04010KT 10SM CLR 05/03 A3019 RMK AO2
cycle: 14

Station Type Date Time Source
KBNL TAF UTC NOAA

Error!

Example: see airport list